sensor_id;sensor_type;location;lat;lon;timestamp;temperature;humidity
29345;DHT22;16339;48.748;2.222;2023-05-14T00:01:18;18.80;87.70
29345;DHT22;16339;48.748;2.222;2023-05-14T00:03:47;18.80;87.60
29345;DHT22;16339;48.748;2.222;2023-05-14T00:06:16;18.70;87.50
29345;DHT22;16339;48.748;2.222;2023-05-14T00:08:44;18.70;87.50
29345;DHT22;16339;48.748;2.222;2023-05-14T00:11:13;18.60;87.70
29345;DHT22;16339;48.748;2.222;2023-05-14T00:13:42;18.50;87.80
29345;DHT22;16339;48.748;2.222;2023-05-14T00:16:13;18.50;88.20
29345;DHT22;16339;48.748;2.222;2023-05-14T00:18:42;18.40;88.10
29345;DHT22;16339;48.748;2.222;2023-05-14T00:21:11;18.30;88.30
29345;DHT22;16339;48.748;2.222;2023-05-14T00:23:39;18.20;88.70
29345;DHT22;16339;48.748;2.222;2023-05-14T00:26:08;18.10;89.10
29345;DHT22;16339;48.748;2.222;2023-05-14T00:28:37;18.10;89.10
29345;DHT22;16339;48.748;2.222;2023-05-14T00:31:05;18.10;88.90
29345;DHT22;16339;48.748;2.222;2023-05-14T00:33:37;18.00;88.80
29345;DHT22;16339;48.748;2.222;2023-05-14T00:36:06;18.00;88.80
29345;DHT22;16339;48.748;2.222;2023-05-14T00:38:35;17.90;88.80
29345;DHT22;16339;48.748;2.222;2023-05-14T00:41:04;17.80;88.80
29345;DHT22;16339;48.748;2.222;2023-05-14T00:43:33;17.80;88.80
29345;DHT22;16339;48.748;2.222;2023-05-14T00:46:01;17.70;89.00
29345;DHT22;16339;48.748;2.222;2023-05-14T00:48:30;17.80;89.00
29345;DHT22;16339;48.748;2.222;2023-05-14T00:51:02;17.60;89.00
29345;DHT22;16339;48.748;2.222;2023-05-14T00:53:30;17.70;89.10
29345;DHT22;16339;48.748;2.222;2023-05-14T00:55:59;17.40;89.10
29345;DHT22;16339;48.748;2.222;2023-05-14T00:58:28;17.30;89.40
29345;DHT22;16339;48.748;2.222;2023-05-14T01:00:58;17.30;90.00
29345;DHT22;16339;48.748;2.222;2023-05-14T01:03:28;17.30;89.80
29345;DHT22;16339;48.748;2.222;2023-05-14T01:06:05;17.40;89.50
29345;DHT22;16339;48.748;2.222;2023-05-14T01:08:47;17.40;89.20
29345;DHT22;16339;48.748;2.222;2023-05-14T01:11:21;17.50;89.20
29345;DHT22;16339;48.748;2.222;2023-05-14T01:13:58;17.50;88.90
29345;DHT22;16339;48.748;2.222;2023-05-14T01:16:30;17.50;89.00
29345;DHT22;16339;48.748;2.222;2023-05-14T01:19:01;17.50;88.90
29345;DHT22;16339;48.748;2.222;2023-05-14T01:21:36;17.30;88.70
29345;DHT22;16339;48.748;2.222;2023-05-14T01:24:06;17.40;88.80
29345;DHT22;16339;48.748;2.222;2023-05-14T01:26:35;17.30;88.70
29345;DHT22;16339;48.748;2.222;2023-05-14T01:29:10;17.30;89.20
29345;DHT22;16339;48.748;2.222;2023-05-14T01:31:43;17.30;88.90
29345;DHT22;16339;48.748;2.222;2023-05-14T01:34:12;17.30;88.80
29345;DHT22;16339;48.748;2.222;2023-05-14T01:36:44;17.30;88.60
29345;DHT22;16339;48.748;2.222;2023-05-14T01:39:14;17.00;88.90
29345;DHT22;16339;48.748;2.222;2023-05-14T01:41:43;16.80;89.40
29345;DHT22;16339;48.748;2.222;2023-05-14T01:44:13;16.90;89.80
29345;DHT22;16339;48.748;2.222;2023-05-14T01:46:42;16.70;90.00
29345;DHT22;16339;48.748;2.222;2023-05-14T01:49:10;16.80;90.00
29345;DHT22;16339;48.748;2.222;2023-05-14T01:51:40;16.60;90.00
29345;DHT22;16339;48.748;2.222;2023-05-14T01:54:12;16.70;90.00
29345;DHT22;16339;48.748;2.222;2023-05-14T01:56:43;16.60;90.10
29345;DHT22;16339;48.748;2.222;2023-05-14T01:59:12;16.70;90.00
29345;DHT22;16339;48.748;2.222;2023-05-14T02:01:41;16.70;89.70
29345;DHT22;16339;48.748;2.222;2023-05-14T02:04:09;16.60;89.80
29345;DHT22;16339;48.748;2.222;2023-05-14T02:06:38;16.60;90.00
29345;DHT22;16339;48.748;2.222;2023-05-14T02:09:07;16.50;90.00
29345;DHT22;16339;48.748;2.222;2023-05-14T02:11:38;16.70;90.10
29345;DHT22;16339;48.748;2.222;2023-05-14T02:14:09;16.80;89.90
29345;DHT22;16339;48.748;2.222;2023-05-14T02:16:39;16.80;89.70
29345;DHT22;16339;48.748;2.222;2023-05-14T02:19:08;16.90;89.70
29345;DHT22;16339;48.748;2.222;2023-05-14T02:21:37;16.80;89.40
29345;DHT22;16339;48.748;2.222;2023-05-14T02:24:06;16.90;89.50
29345;DHT22;16339;48.748;2.222;2023-05-14T02:26:35;16.90;89.40
29345;DHT22;16339;48.748;2.222;2023-05-14T02:29:06;16.70;89.70
29345;DHT22;16339;48.748;2.222;2023-05-14T02:31:35;16.90;89.70
29345;DHT22;16339;48.748;2.222;2023-05-14T02:34:04;17.00;89.30
29345;DHT22;16339;48.748;2.222;2023-05-14T02:36:33;17.00;88.80
29345;DHT22;16339;48.748;2.222;2023-05-14T02:39:02;16.90;88.80
29345;DHT22;16339;48.748;2.222;2023-05-14T02:41:31;16.90;89.10
29345;DHT22;16339;48.748;2.222;2023-05-14T02:44:00;16.80;89.40
29345;DHT22;16339;48.748;2.222;2023-05-14T02:46:32;16.90;89.50
29345;DHT22;16339;48.748;2.222;2023-05-14T02:49:01;16.90;89.30
29345;DHT22;16339;48.748;2.222;2023-05-14T02:51:30;16.90;89.10
29345;DHT22;16339;48.748;2.222;2023-05-14T02:53:58;16.90;89.20
29345;DHT22;16339;48.748;2.222;2023-05-14T02:56:27;16.90;89.40
29345;DHT22;16339;48.748;2.222;2023-05-14T02:58:56;16.90;89.10
29345;DHT22;16339;48.748;2.222;2023-05-14T03:01:25;17.00;89.10
29345;DHT22;16339;48.748;2.222;2023-05-14T03:03:56;17.00;89.10
29345;DHT22;16339;48.748;2.222;2023-05-14T03:06:25;17.00;88.90
29345;DHT22;16339;48.748;2.222;2023-05-14T03:08:53;16.70;89.10
29345;DHT22;16339;48.748;2.222;2023-05-14T03:11:22;16.70;89.70
29345;DHT22;16339;48.748;2.222;2023-05-14T03:13:51;16.80;89.60
29345;DHT22;16339;48.748;2.222;2023-05-14T03:16:20;16.90;89.10
29345;DHT22;16339;48.748;2.222;2023-05-14T03:18:48;16.90;89.20
29345;DHT22;16339;48.748;2.222;2023-05-14T03:21:20;16.90;89.20
29345;DHT22;16339;48.748;2.222;2023-05-14T03:23:48;16.90;89.10
29345;DHT22;16339;48.748;2.222;2023-05-14T03:26:17;17.00;89.40
29345;DHT22;16339;48.748;2.222;2023-05-14T03:28:46;17.00;88.80
29345;DHT22;16339;48.748;2.222;2023-05-14T03:31:14;16.90;89.10
29345;DHT22;16339;48.748;2.222;2023-05-14T03:33:43;17.00;89.00
29345;DHT22;16339;48.748;2.222;2023-05-14T03:36:12;17.00;89.10
29345;DHT22;16339;48.748;2.222;2023-05-14T03:38:43;17.10;88.80
29345;DHT22;16339;48.748;2.222;2023-05-14T03:41:12;16.90;88.70
29345;DHT22;16339;48.748;2.222;2023-05-14T03:43:42;16.80;88.90
29345;DHT22;16339;48.748;2.222;2023-05-14T03:46:11;16.70;89.40
29345;DHT22;16339;48.748;2.222;2023-05-14T03:48:39;16.70;89.30
29345;DHT22;16339;48.748;2.222;2023-05-14T03:51:08;16.70;89.50
29345;DHT22;16339;48.748;2.222;2023-05-14T03:53:37;16.70;89.70
29345;DHT22;16339;48.748;2.222;2023-05-14T03:56:08;16.40;90.00
29345;DHT22;16339;48.748;2.222;2023-05-14T03:58:37;16.30;90.40
29345;DHT22;16339;48.748;2.222;2023-05-14T04:01:06;16.20;90.40
29345;DHT22;16339;48.748;2.222;2023-05-14T04:03:34;16.30;90.30
29345;DHT22;16339;48.748;2.222;2023-05-14T04:06:03;16.30;90.30
29345;DHT22;16339;48.748;2.222;2023-05-14T04:08:32;16.30;90.30
29345;DHT22;16339;48.748;2.222;2023-05-14T04:11:03;16.50;90.20
29345;DHT22;16339;48.748;2.222;2023-05-14T04:13:34;16.60;90.20
29345;DHT22;16339;48.748;2.222;2023-05-14T04:16:04;16.60;90.10
29345;DHT22;16339;48.748;2.222;2023-05-14T04:18:33;16.70;90.00
29345;DHT22;16339;48.748;2.222;2023-05-14T04:21:01;16.90;89.70
29345;DHT22;16339;48.748;2.222;2023-05-14T04:23:30;16.90;89.20
29345;DHT22;16339;48.748;2.222;2023-05-14T04:25:59;16.70;89.00
29345;DHT22;16339;48.748;2.222;2023-05-14T04:28:28;16.80;90.00
29345;DHT22;16339;48.748;2.222;2023-05-14T04:30:59;16.80;89.40
29345;DHT22;16339;48.748;2.222;2023-05-14T04:33:28;16.90;89.20
29345;DHT22;16339;48.748;2.222;2023-05-14T04:35:57;17.00;90.00
29345;DHT22;16339;48.748;2.222;2023-05-14T04:38:26;16.90;88.90
29345;DHT22;16339;48.748;2.222;2023-05-14T04:40:54;17.00;88.70
29345;DHT22;16339;48.748;2.222;2023-05-14T04:43:23;17.00;88.30
29345;DHT22;16339;48.748;2.222;2023-05-14T04:45:52;16.90;88.30
29345;DHT22;16339;48.748;2.222;2023-05-14T04:48:23;16.70;88.50
29345;DHT22;16339;48.748;2.222;2023-05-14T04:50:52;16.60;88.90
29345;DHT22;16339;48.748;2.222;2023-05-14T04:53:21;16.60;89.50
29345;DHT22;16339;48.748;2.222;2023-05-14T04:55:49;16.50;89.50
29345;DHT22;16339;48.748;2.222;2023-05-14T04:58:18;16.60;89.90
29345;DHT22;16339;48.748;2.222;2023-05-14T05:00:48;16.70;89.70
29345;DHT22;16339;48.748;2.222;2023-05-14T05:03:17;16.70;89.40
29345;DHT22;16339;48.748;2.222;2023-05-14T05:05:48;16.70;89.20
29345;DHT22;16339;48.748;2.222;2023-05-14T05:08:17;16.70;89.30
29345;DHT22;16339;48.748;2.222;2023-05-14T05:10:46;16.40;90.00
29345;DHT22;16339;48.748;2.222;2023-05-14T05:13:14;16.40;90.20
29345;DHT22;16339;48.748;2.222;2023-05-14T05:15:43;16.50;90.20
29345;DHT22;16339;48.748;2.222;2023-05-14T05:18:12;16.50;90.10
29345;DHT22;16339;48.748;2.222;2023-05-14T05:20:40;16.60;90.10
29345;DHT22;16339;48.748;2.222;2023-05-14T05:23:12;16.60;90.10
29345;DHT22;16339;48.748;2.222;2023-05-14T05:25:41;16.70;90.10
29345;DHT22;16339;48.748;2.222;2023-05-14T05:28:09;16.60;89.70
29345;DHT22;16339;48.748;2.222;2023-05-14T05:30:38;16.70;90.00
29345;DHT22;16339;48.748;2.222;2023-05-14T05:33:09;16.70;90.00
29345;DHT22;16339;48.748;2.222;2023-05-14T05:35:38;16.70;89.80
29345;DHT22;16339;48.748;2.222;2023-05-14T05:38:07;16.70;90.00
29345;DHT22;16339;48.748;2.222;2023-05-14T05:40:39;16.60;90.00
29345;DHT22;16339;48.748;2.222;2023-05-14T05:43:07;16.70;90.00
29345;DHT22;16339;48.748;2.222;2023-05-14T05:45:38;16.70;90.00
29345;DHT22;16339;48.748;2.222;2023-05-14T05:48:07;16.70;90.10
29345;DHT22;16339;48.748;2.222;2023-05-14T05:50:35;16.70;90.00
29345;DHT22;16339;48.748;2.222;2023-05-14T05:53:04;16.70;90.00
29345;DHT22;16339;48.748;2.222;2023-05-14T05:55:33;16.70;90.10
29345;DHT22;16339;48.748;2.222;2023-05-14T05:58:04;16.60;90.20
29345;DHT22;16339;48.748;2.222;2023-05-14T06:00:33;16.60;90.20
29345;DHT22;16339;48.748;2.222;2023-05-14T06:03:02;16.70;90.20
29345;DHT22;16339;48.748;2.222;2023-05-14T06:05:30;16.70;90.20
29345;DHT22;16339;48.748;2.222;2023-05-14T06:07:59;16.80;90.10
29345;DHT22;16339;48.748;2.222;2023-05-14T06:10:28;16.70;90.10
29345;DHT22;16339;48.748;2.222;2023-05-14T06:12:59;16.60;90.20
29345;DHT22;16339;48.748;2.222;2023-05-14T06:15:30;16.70;90.20
29345;DHT22;16339;48.748;2.222;2023-05-14T06:17:59;16.70;90.30
29345;DHT22;16339;48.748;2.222;2023-05-14T06:20:28;16.70;90.10
29345;DHT22;16339;48.748;2.222;2023-05-14T06:22:57;16.60;90.20
29345;DHT22;16339;48.748;2.222;2023-05-14T06:25:26;16.50;90.40
29345;DHT22;16339;48.748;2.222;2023-05-14T06:27:54;16.40;90.50
29345;DHT22;16339;48.748;2.222;2023-05-14T06:30:23;16.40;90.60
29345;DHT22;16339;48.748;2.222;2023-05-14T06:32:54;16.50;90.60
29345;DHT22;16339;48.748;2.222;2023-05-14T06:35:23;16.60;90.70
29345;DHT22;16339;48.748;2.222;2023-05-14T06:37:52;16.70;90.50
29345;DHT22;16339;48.748;2.222;2023-05-14T06:40:21;16.60;90.30
29345;DHT22;16339;48.748;2.222;2023-05-14T06:42:49;16.70;90.50
29345;DHT22;16339;48.748;2.222;2023-05-14T06:45:18;16.60;90.40
29345;DHT22;16339;48.748;2.222;2023-05-14T06:47:47;16.70;90.40
29345;DHT22;16339;48.748;2.222;2023-05-14T06:50:18;16.60;90.20
29345;DHT22;16339;48.748;2.222;2023-05-14T06:52:47;16.60;90.20
29345;DHT22;16339;48.748;2.222;2023-05-14T06:55:16;16.30;90.50
29345;DHT22;16339;48.748;2.222;2023-05-14T06:57:45;16.20;90.70
29345;DHT22;16339;48.748;2.222;2023-05-14T07:00:15;16.20;90.80
29345;DHT22;16339;48.748;2.222;2023-05-14T07:02:44;16.30;91.00
29345;DHT22;16339;48.748;2.222;2023-05-14T07:05:12;16.40;90.90
29345;DHT22;16339;48.748;2.222;2023-05-14T07:07:44;16.40;91.50
29345;DHT22;16339;48.748;2.222;2023-05-14T07:10:12;16.40;91.20
29345;DHT22;16339;48.748;2.222;2023-05-14T07:12:41;16.40;91.00
29345;DHT22;16339;48.748;2.222;2023-05-14T07:15:10;16.30;91.10
29345;DHT22;16339;48.748;2.222;2023-05-14T07:17:39;16.30;90.80
29345;DHT22;16339;48.748;2.222;2023-05-14T07:20:10;16.00;91.00
29345;DHT22;16339;48.748;2.222;2023-05-14T07:22:39;15.60;91.30
29345;DHT22;16339;48.748;2.222;2023-05-14T07:25:11;15.70;91.50
29345;DHT22;16339;48.748;2.222;2023-05-14T07:27:39;15.80;91.50
29345;DHT22;16339;48.748;2.222;2023-05-14T07:30:09;15.90;91.30
29345;DHT22;16339;48.748;2.222;2023-05-14T07:32:38;15.80;91.10
29345;DHT22;16339;48.748;2.222;2023-05-14T07:35:07;15.60;91.50
29345;DHT22;16339;48.748;2.222;2023-05-14T07:37:36;15.70;91.60
29345;DHT22;16339;48.748;2.222;2023-05-14T07:40:06;15.80;91.50
29345;DHT22;16339;48.748;2.222;2023-05-14T07:42:38;15.80;91.30
29345;DHT22;16339;48.748;2.222;2023-05-14T07:45:08;15.80;91.40
29345;DHT22;16339;48.748;2.222;2023-05-14T07:47:38;15.50;91.60
29345;DHT22;16339;48.748;2.222;2023-05-14T07:50:08;15.70;91.70
29345;DHT22;16339;48.748;2.222;2023-05-14T07:52:37;15.80;91.80
29345;DHT22;16339;48.748;2.222;2023-05-14T07:55:06;15.50;92.10
29345;DHT22;16339;48.748;2.222;2023-05-14T07:57:39;15.40;91.80
29345;DHT22;16339;48.748;2.222;2023-05-14T08:00:08;15.40;91.80
29345;DHT22;16339;48.748;2.222;2023-05-14T08:02:37;15.60;91.70
29345;DHT22;16339;48.748;2.222;2023-05-14T08:05:07;15.70;91.50
29345;DHT22;16339;48.748;2.222;2023-05-14T08:07:36;15.40;91.70
29345;DHT22;16339;48.748;2.222;2023-05-14T08:10:07;15.70;92.10
29345;DHT22;16339;48.748;2.222;2023-05-14T08:12:38;15.70;91.70
29345;DHT22;16339;48.748;2.222;2023-05-14T08:15:09;15.60;91.50
29345;DHT22;16339;48.748;2.222;2023-05-14T08:17:38;15.70;91.50
29345;DHT22;16339;48.748;2.222;2023-05-14T08:20:08;15.80;91.40
29345;DHT22;16339;48.748;2.222;2023-05-14T08:22:37;15.60;91.30
29345;DHT22;16339;48.748;2.222;2023-05-14T08:25:06;15.90;91.30
29345;DHT22;16339;48.748;2.222;2023-05-14T08:27:35;15.90;91.00
29345;DHT22;16339;48.748;2.222;2023-05-14T08:30:07;16.00;91.00
29345;DHT22;16339;48.748;2.222;2023-05-14T08:32:36;16.10;91.00
29345;DHT22;16339;48.748;2.222;2023-05-14T08:35:08;16.30;90.90
29345;DHT22;16339;48.748;2.222;2023-05-14T08:37:40;16.40;90.50
29345;DHT22;16339;48.748;2.222;2023-05-14T08:40:09;16.40;90.30
29345;DHT22;16339;48.748;2.222;2023-05-14T08:42:38;16.40;90.10
29345;DHT22;16339;48.748;2.222;2023-05-14T08:45:17;16.20;90.50
29345;DHT22;16339;48.748;2.222;2023-05-14T08:47:47;16.10;90.50
29345;DHT22;16339;48.748;2.222;2023-05-14T08:50:17;16.10;90.60
29345;DHT22;16339;48.748;2.222;2023-05-14T08:52:47;16.10;90.70
29345;DHT22;16339;48.748;2.222;2023-05-14T08:55:18;16.00;90.70
29345;DHT22;16339;48.748;2.222;2023-05-14T08:57:47;16.10;90.90
29345;DHT22;16339;48.748;2.222;2023-05-14T09:00:19;16.00;90.90
29345;DHT22;16339;48.748;2.222;2023-05-14T09:02:47;15.70;91.10
29345;DHT22;16339;48.748;2.222;2023-05-14T09:05:17;15.90;91.30
29345;DHT22;16339;48.748;2.222;2023-05-14T09:07:47;15.90;91.10
29345;DHT22;16339;48.748;2.222;2023-05-14T09:10:16;15.70;91.30
29345;DHT22;16339;48.748;2.222;2023-05-14T09:12:45;15.80;91.40
29345;DHT22;16339;48.748;2.222;2023-05-14T09:15:14;15.70;91.60
29345;DHT22;16339;48.748;2.222;2023-05-14T09:17:45;15.70;91.40
29345;DHT22;16339;48.748;2.222;2023-05-14T09:20:15;15.80;91.50
29345;DHT22;16339;48.748;2.222;2023-05-14T09:22:44;16.00;91.40
29345;DHT22;16339;48.748;2.222;2023-05-14T09:25:15;16.10;91.20
29345;DHT22;16339;48.748;2.222;2023-05-14T09:27:46;16.30;91.00
29345;DHT22;16339;48.748;2.222;2023-05-14T09:30:16;16.30;90.70
29345;DHT22;16339;48.748;2.222;2023-05-14T09:32:49;16.40;90.30
29345;DHT22;16339;48.748;2.222;2023-05-14T09:35:21;16.50;90.10
29345;DHT22;16339;48.748;2.222;2023-05-14T09:37:52;16.60;90.00
29345;DHT22;16339;48.748;2.222;2023-05-14T09:40:22;16.70;89.60
29345;DHT22;16339;48.748;2.222;2023-05-14T09:42:51;17.00;89.80
29345;DHT22;16339;48.748;2.222;2023-05-14T09:45:21;17.00;88.50
29345;DHT22;16339;48.748;2.222;2023-05-14T09:47:52;16.90;88.50
29345;DHT22;16339;48.748;2.222;2023-05-14T09:50:21;17.10;88.90
29345;DHT22;16339;48.748;2.222;2023-05-14T09:52:51;17.00;88.90
29345;DHT22;16339;48.748;2.222;2023-05-14T09:55:22;17.10;89.00
29345;DHT22;16339;48.748;2.222;2023-05-14T09:57:51;17.20;89.60
29345;DHT22;16339;48.748;2.222;2023-05-14T10:00:20;17.20;89.80
29345;DHT22;16339;48.748;2.222;2023-05-14T10:02:52;17.30;90.20
29345;DHT22;16339;48.748;2.222;2023-05-14T10:05:22;16.90;89.50
29345;DHT22;16339;48.748;2.222;2023-05-14T10:07:54;17.00;89.80
29345;DHT22;16339;48.748;2.222;2023-05-14T10:10:27;17.10;89.20
29345;DHT22;16339;48.748;2.222;2023-05-14T10:12:57;17.00;89.70
29345;DHT22;16339;48.748;2.222;2023-05-14T10:15:35;17.00;89.20
29345;DHT22;16339;48.748;2.222;2023-05-14T10:18:09;16.80;89.40
29345;DHT22;16339;48.748;2.222;2023-05-14T10:20:39;16.90;89.10
29345;DHT22;16339;48.748;2.222;2023-05-14T10:23:09;16.90;89.70
29345;DHT22;16339;48.748;2.222;2023-05-14T10:25:39;16.70;89.10
29345;DHT22;16339;48.748;2.222;2023-05-14T10:28:08;16.90;88.90
29345;DHT22;16339;48.748;2.222;2023-05-14T10:30:42;17.00;89.10
29345;DHT22;16339;48.748;2.222;2023-05-14T10:33:14;17.20;88.60
29345;DHT22;16339;48.748;2.222;2023-05-14T10:35:56;17.30;88.20
29345;DHT22;16339;48.748;2.222;2023-05-14T10:38:26;17.50;88.30
29345;DHT22;16339;48.748;2.222;2023-05-14T10:40:57;17.50;87.50
29345;DHT22;16339;48.748;2.222;2023-05-14T10:43:26;17.70;87.40
29345;DHT22;16339;48.748;2.222;2023-05-14T10:45:56;17.90;87.40
29345;DHT22;16339;48.748;2.222;2023-05-14T10:48:28;17.90;87.20
29345;DHT22;16339;48.748;2.222;2023-05-14T10:50:57;17.90;86.70
29345;DHT22;16339;48.748;2.222;2023-05-14T10:53:33;18.00;86.80
29345;DHT22;16339;48.748;2.222;2023-05-14T10:56:03;17.90;85.30
29345;DHT22;16339;48.748;2.222;2023-05-14T10:58:35;18.00;85.90
29345;DHT22;16339;48.748;2.222;2023-05-14T11:01:05;18.10;85.90
29345;DHT22;16339;48.748;2.222;2023-05-14T11:03:41;18.20;86.70
29345;DHT22;16339;48.748;2.222;2023-05-14T11:06:12;18.40;85.60
29345;DHT22;16339;48.748;2.222;2023-05-14T11:08:44;18.60;86.00
29345;DHT22;16339;48.748;2.222;2023-05-14T11:11:13;18.70;85.10
29345;DHT22;16339;48.748;2.222;2023-05-14T11:13:43;18.90;84.10
29345;DHT22;16339;48.748;2.222;2023-05-14T11:16:12;19.10;84.00
29345;DHT22;16339;48.748;2.222;2023-05-14T11:18:46;19.10;84.60
29345;DHT22;16339;48.748;2.222;2023-05-14T11:21:16;19.10;84.00
29345;DHT22;16339;48.748;2.222;2023-05-14T11:23:45;19.20;82.90
29345;DHT22;16339;48.748;2.222;2023-05-14T11:26:14;19.20;82.70
29345;DHT22;16339;48.748;2.222;2023-05-14T11:28:44;19.20;83.00
29345;DHT22;16339;48.748;2.222;2023-05-14T11:31:16;19.20;82.10
29345;DHT22;16339;48.748;2.222;2023-05-14T11:33:47;19.10;81.80
29345;DHT22;16339;48.748;2.222;2023-05-14T11:36:16;19.00;83.00
29345;DHT22;16339;48.748;2.222;2023-05-14T11:38:45;18.60;83.60
29345;DHT22;16339;48.748;2.222;2023-05-14T11:41:17;18.70;84.10
29345;DHT22;16339;48.748;2.222;2023-05-14T11:43:47;18.80;84.10
29345;DHT22;16339;48.748;2.222;2023-05-14T11:46:16;18.90;84.40
29345;DHT22;16339;48.748;2.222;2023-05-14T11:48:49;19.00;83.70
29345;DHT22;16339;48.748;2.222;2023-05-14T11:51:18;19.10;83.30
29345;DHT22;16339;48.748;2.222;2023-05-14T11:53:47;19.00;83.30
29345;DHT22;16339;48.748;2.222;2023-05-14T11:56:19;18.70;83.20
29345;DHT22;16339;48.748;2.222;2023-05-14T11:58:48;18.70;83.90
29345;DHT22;16339;48.748;2.222;2023-05-14T12:01:25;18.70;84.10
29345;DHT22;16339;48.748;2.222;2023-05-14T12:04:03;19.00;84.10
29345;DHT22;16339;48.748;2.222;2023-05-14T12:06:32;19.10;83.90
29345;DHT22;16339;48.748;2.222;2023-05-14T12:09:01;19.20;83.30
29345;DHT22;16339;48.748;2.222;2023-05-14T12:11:32;19.30;83.20
29345;DHT22;16339;48.748;2.222;2023-05-14T12:14:10;19.40;83.00
29345;DHT22;16339;48.748;2.222;2023-05-14T12:16:40;19.20;83.10
29345;DHT22;16339;48.748;2.222;2023-05-14T12:19:14;19.30;82.70
29345;DHT22;16339;48.748;2.222;2023-05-14T12:21:43;19.10;83.90
29345;DHT22;16339;48.748;2.222;2023-05-14T12:24:14;19.20;83.30
29345;DHT22;16339;48.748;2.222;2023-05-14T12:26:44;19.20;83.60
29345;DHT22;16339;48.748;2.222;2023-05-14T12:29:18;19.30;82.80
29345;DHT22;16339;48.748;2.222;2023-05-14T12:31:48;19.50;83.40
29345;DHT22;16339;48.748;2.222;2023-05-14T12:34:20;19.50;83.00
29345;DHT22;16339;48.748;2.222;2023-05-14T12:36:48;19.60;82.20
29345;DHT22;16339;48.748;2.222;2023-05-14T12:39:17;19.80;82.10
29345;DHT22;16339;48.748;2.222;2023-05-14T12:41:48;19.80;81.70
29345;DHT22;16339;48.748;2.222;2023-05-14T12:44:17;19.70;81.40
29345;DHT22;16339;48.748;2.222;2023-05-14T12:46:47;19.80;82.10
29345;DHT22;16339;48.748;2.222;2023-05-14T12:49:15;19.90;82.50
29345;DHT22;16339;48.748;2.222;2023-05-14T12:51:47;20.10;81.90
29345;DHT22;16339;48.748;2.222;2023-05-14T12:54:16;20.10;81.10
29345;DHT22;16339;48.748;2.222;2023-05-14T12:56:44;20.20;81.80
29345;DHT22;16339;48.748;2.222;2023-05-14T12:59:13;20.20;81.70
29345;DHT22;16339;48.748;2.222;2023-05-14T13:01:42;20.30;82.00
29345;DHT22;16339;48.748;2.222;2023-05-14T13:04:13;20.40;79.90
29345;DHT22;16339;48.748;2.222;2023-05-14T13:06:42;20.40;80.20
29345;DHT22;16339;48.748;2.222;2023-05-14T13:09:14;20.50;81.10
29345;DHT22;16339;48.748;2.222;2023-05-14T13:11:42;20.50;80.40
29345;DHT22;16339;48.748;2.222;2023-05-14T13:14:11;20.60;80.10
29345;DHT22;16339;48.748;2.222;2023-05-14T13:16:42;20.60;81.10
29345;DHT22;16339;48.748;2.222;2023-05-14T13:19:10;20.70;80.10
29345;DHT22;16339;48.748;2.222;2023-05-14T13:21:39;20.70;80.60
29345;DHT22;16339;48.748;2.222;2023-05-14T13:24:08;20.80;80.50
29345;DHT22;16339;48.748;2.222;2023-05-14T13:26:40;20.90;80.30
29345;DHT22;16339;48.748;2.222;2023-05-14T13:29:09;21.00;79.30
29345;DHT22;16339;48.748;2.222;2023-05-14T13:31:37;21.20;79.10
29345;DHT22;16339;48.748;2.222;2023-05-14T13:34:06;21.20;77.90
29345;DHT22;16339;48.748;2.222;2023-05-14T13:36:35;21.20;77.50
29345;DHT22;16339;48.748;2.222;2023-05-14T13:39:05;21.20;76.70
29345;DHT22;16339;48.748;2.222;2023-05-14T13:41:35;21.20;78.30
29345;DHT22;16339;48.748;2.222;2023-05-14T13:44:06;21.20;78.20
29345;DHT22;16339;48.748;2.222;2023-05-14T13:46:35;21.30;77.70
29345;DHT22;16339;48.748;2.222;2023-05-14T13:49:08;21.30;77.30
29345;DHT22;16339;48.748;2.222;2023-05-14T13:51:37;21.40;76.40
29345;DHT22;16339;48.748;2.222;2023-05-14T13:54:06;21.40;76.90
29345;DHT22;16339;48.748;2.222;2023-05-14T13:56:35;21.50;77.20
29345;DHT22;16339;48.748;2.222;2023-05-14T13:59:09;21.70;76.60
29345;DHT22;16339;48.748;2.222;2023-05-14T14:01:38;21.80;75.60
29345;DHT22;16339;48.748;2.222;2023-05-14T14:04:08;21.70;75.70
29345;DHT22;16339;48.748;2.222;2023-05-14T14:06:36;21.70;76.40
29345;DHT22;16339;48.748;2.222;2023-05-14T14:09:05;21.90;76.60
29345;DHT22;16339;48.748;2.222;2023-05-14T14:11:34;22.00;75.00
29345;DHT22;16339;48.748;2.222;2023-05-14T14:14:03;22.10;74.60
29345;DHT22;16339;48.748;2.222;2023-05-14T14:16:34;22.20;74.60
29345;DHT22;16339;48.748;2.222;2023-05-14T14:19:03;22.20;74.60
29345;DHT22;16339;48.748;2.222;2023-05-14T14:21:32;22.30;74.50
29345;DHT22;16339;48.748;2.222;2023-05-14T14:24:04;22.40;74.70
29345;DHT22;16339;48.748;2.222;2023-05-14T14:26:35;22.40;74.50
29345;DHT22;16339;48.748;2.222;2023-05-14T14:29:04;22.50;73.70
29345;DHT22;16339;48.748;2.222;2023-05-14T14:31:36;22.50;72.90
29345;DHT22;16339;48.748;2.222;2023-05-14T14:34:05;22.50;73.50
29345;DHT22;16339;48.748;2.222;2023-05-14T14:36:34;22.60;73.40
29345;DHT22;16339;48.748;2.222;2023-05-14T14:39:03;22.70;72.40
29345;DHT22;16339;48.748;2.222;2023-05-14T14:41:31;22.70;73.00
29345;DHT22;16339;48.748;2.222;2023-05-14T14:44:00;22.80;71.80
29345;DHT22;16339;48.748;2.222;2023-05-14T14:46:30;22.80;72.30
29345;DHT22;16339;48.748;2.222;2023-05-14T14:49:01;22.90;72.20
29345;DHT22;16339;48.748;2.222;2023-05-14T14:51:30;22.90;70.10
29345;DHT22;16339;48.748;2.222;2023-05-14T14:53:59;22.90;70.10
29345;DHT22;16339;48.748;2.222;2023-05-14T14:56:29;22.90;70.80
29345;DHT22;16339;48.748;2.222;2023-05-14T14:58:58;23.00;71.60
29345;DHT22;16339;48.748;2.222;2023-05-14T15:01:27;23.10;70.20
29345;DHT22;16339;48.748;2.222;2023-05-14T15:03:56;23.10;70.80
29345;DHT22;16339;48.748;2.222;2023-05-14T15:06:27;23.10;69.80
29345;DHT22;16339;48.748;2.222;2023-05-14T15:08:56;23.10;69.20
29345;DHT22;16339;48.748;2.222;2023-05-14T15:11:25;23.10;69.60
29345;DHT22;16339;48.748;2.222;2023-05-14T15:13:54;23.10;69.20
29345;DHT22;16339;48.748;2.222;2023-05-14T15:16:22;23.10;68.90
29345;DHT22;16339;48.748;2.222;2023-05-14T15:18:51;23.10;69.10
29345;DHT22;16339;48.748;2.222;2023-05-14T15:21:20;23.10;69.20
29345;DHT22;16339;48.748;2.222;2023-05-14T15:23:51;23.00;69.20
29345;DHT22;16339;48.748;2.222;2023-05-14T15:26:20;23.10;69.10
29345;DHT22;16339;48.748;2.222;2023-05-14T15:28:51;23.10;69.10
29345;DHT22;16339;48.748;2.222;2023-05-14T15:31:20;23.20;68.30
29345;DHT22;16339;48.748;2.222;2023-05-14T15:33:52;23.20;67.60
29345;DHT22;16339;48.748;2.222;2023-05-14T15:36:23;23.10;69.40
29345;DHT22;16339;48.748;2.222;2023-05-14T15:38:55;23.00;68.90
29345;DHT22;16339;48.748;2.222;2023-05-14T15:41:24;22.90;69.40
29345;DHT22;16339;48.748;2.222;2023-05-14T15:43:53;22.90;68.30
29345;DHT22;16339;48.748;2.222;2023-05-14T15:46:25;22.90;68.10